Time;durP1;ratioP1;P1;durP2;ratioP2;P2;SDS_P1;SDS_P2;PMS_P1;PMS_P2;Temp;Humidity;BMP_temperature;BMP_pressure;BME280_temperature;BME280_humidity;BME280_pressure;Samples;Min_cycle;Max_cycle;Signal;HPM_P1;HPM_P2
2024/01/09 00:01:44;;;;;;;14.45;9.55;;;-2.70;96.50;;;;;;4917614;29;20225;-92
2024/01/09 00:04:12;;;;;;;15.50;10.60;;;-2.70;96.60;;;;;;4916984;29;20234;-92
2024/01/09 00:06:40;;;;;;;12.73;9.45;;;-2.80;96.60;;;;;;4917043;29;20249;-91
2024/01/09 00:09:07;;;;;;;14.70;9.32;;;-2.80;96.70;;;;;;4917099;29;20233;-92
2024/01/09 00:11:34;;;;;;;15.88;9.63;;;-2.80;96.90;;;;;;4916926;29;20324;-91
2024/01/09 00:14:02;;;;;;;10.43;8.70;;;-2.80;96.90;;;;;;4917249;29;20242;-92
2024/01/09 00:16:29;;;;;;;12.95;9.13;;;-2.80;96.90;;;;;;4916494;29;20240;-92
2024/01/09 00:18:59;;;;;;;14.02;8.80;;;-2.90;97.00;;;;;;4917089;29;20226;-92
2024/01/09 00:21:51;;;;;;;15.18;11.18;;;-2.90;97.10;;;;;;4907819;29;20243;-91
2024/01/09 00:24:24;;;;;;;12.85;10.32;;;-2.90;97.10;;;;;;4919963;29;20240;-92
2024/01/09 00:26:53;;;;;;;16.88;10.98;;;-2.90;97.50;;;;;;4918412;29;20237;-92
2024/01/09 00:29:20;;;;;;;14.13;9.43;;;-2.90;97.10;;;;;;4917658;29;20624;-92
2024/01/09 00:31:47;;;;;;;10.70;9.45;;;-3.00;97.00;;;;;;4916953;29;20236;-92
2024/01/09 00:34:14;;;;;;;11.70;8.20;;;-3.00;96.90;;;;;;4917886;29;20229;-92
2024/01/09 00:36:44;;;;;;;16.13;11.00;;;-3.00;96.60;;;;;;4917324;29;20233;-91
2024/01/09 00:39:14;;;;;;;16.02;10.38;;;-3.00;96.70;;;;;;4918264;29;20233;-93
2024/01/09 00:41:44;;;;;;;18.08;10.00;;;-3.00;96.80;;;;;;4907513;29;20699;-93
2024/01/09 00:44:13;;;;;;;13.30;9.15;;;-3.00;96.90;;;;;;4917770;29;20229;-91
2024/01/09 00:46:40;;;;;;;14.35;8.30;;;-3.00;96.80;;;;;;4918168;29;20229;-90
2024/01/09 00:49:07;;;;;;;14.02;10.07;;;-3.00;96.70;;;;;;4918232;29;20245;-91
2024/01/09 00:51:34;;;;;;;14.27;9.52;;;-3.00;96.60;;;;;;4917690;29;20687;-91
2024/01/09 00:54:01;;;;;;;12.70;8.45;;;-3.10;96.10;;;;;;4916139;29;20239;-91
2024/01/09 00:56:30;;;;;;;15.23;8.13;;;-3.10;96.20;;;;;;4916903;29;20240;-90
2024/01/09 00:58:57;;;;;;;10.20;8.65;;;-3.10;95.90;;;;;;4919264;29;20229;-90
2024/01/09 01:01:26;;;;;;;12.02;8.30;;;-3.10;95.90;;;;;;4920174;29;20241;-90
2024/01/09 01:03:53;;;;;;;10.93;8.75;;;-3.20;95.60;;;;;;4920261;29;20229;-91
2024/01/09 01:06:20;;;;;;;14.68;8.30;;;-3.30;95.50;;;;;;4921008;29;20257;-91
2024/01/09 01:08:47;;;;;;;12.05;8.05;;;-3.30;95.60;;;;;;4920814;29;20671;-92
2024/01/09 01:11:14;;;;;;;17.45;9.07;;;-3.30;95.60;;;;;;4912745;29;20237;-91
2024/01/09 01:13:43;;;;;;;8.90;7.50;;;-3.30;95.70;;;;;;4921718;29;20225;-92
2024/01/09 01:16:10;;;;;;;12.20;8.27;;;-3.40;95.80;;;;;;4919936;29;20243;-91
2024/01/09 01:18:37;;;;;;;10.32;8.00;;;-3.40;95.70;;;;;;4920671;29;20251;-92
2024/01/09 01:21:04;;;;;;;12.18;7.78;;;-3.40;95.70;;;;;;4911082;29;20309;-91
2024/01/09 01:23:31;;;;;;;9.27;7.35;;;-3.40;95.60;;;;;;4920619;29;20245;-92
2024/01/09 01:25:58;;;;;;;13.23;8.88;;;-3.50;95.60;;;;;;4921107;29;20260;-92
2024/01/09 01:28:25;;;;;;;9.48;8.48;;;-3.50;95.50;;;;;;4922681;29;20241;-91
2024/01/09 01:30:58;;;;;;;13.05;9.57;;;-3.50;95.70;;;;;;4925113;29;20259;-91
2024/01/09 01:33:26;;;;;;;12.00;7.47;;;-3.60;95.80;;;;;;4933899;29;20229;-91
2024/01/09 01:35:54;;;;;;;17.45;9.07;;;-3.60;95.80;;;;;;4935756;29;20739;-91
2024/01/09 01:38:21;;;;;;;10.75;8.48;;;-3.60;95.60;;;;;;4935272;29;20282;-92
2024/01/09 01:41:07;;;;;;;9.98;7.07;;;-3.70;95.60;;;;;;4927297;29;20277;-92
2024/01/09 01:43:34;;;;;;;15.82;8.82;;;-3.70;95.70;;;;;;4912708;29;20300;-92
2024/01/09 01:46:24;;;;;;;11.40;7.88;;;-3.70;95.90;;;;;;4937632;29;20240;-93
2024/01/09 01:49:14;;;;;;;12.65;8.23;;;-3.70;96.10;;;;;;4920042;29;20236;-93
2024/01/09 01:51:43;;;;;;;11.70;7.13;;;-3.70;96.20;;;;;;4914545;29;20247;-92
2024/01/09 01:54:10;;;;;;;9.10;8.18;;;-3.70;96.20;;;;;;4920214;29;20233;-93
2024/01/09 01:56:37;;;;;;;18.23;9.35;;;-3.60;96.30;;;;;;4919865;29;20230;-93
2024/01/09 01:59:05;;;;;;;12.80;8.88;;;-3.70;96.30;;;;;;4909709;29;20226;-93
2024/01/09 02:01:46;;;;;;;;;;;;;;;;;;;;;
2024/01/09 02:04:14;;;;;;;20.67;9.63;;;-3.60;96.30;;;;;;4912086;29;20277;-93
2024/01/09 02:06:41;;;;;;;13.98;8.70;;;-3.60;96.40;;;;;;4927300;29;20233;-92
2024/01/09 02:09:36;;;;;;;12.45;7.57;;;-3.60;96.40;;;;;;4924747;29;20260;-93
2024/01/09 02:12:03;;;;;;;16.85;8.80;;;-3.50;96.40;;;;;;4921681;29;20308;-93
2024/01/09 02:14:31;;;;;;;10.70;8.02;;;-3.50;96.30;;;;;;4920111;29;20233;-92
2024/01/09 02:17:04;;;;;;;11.60;8.70;;;-3.50;95.90;;;;;;4919696;29;25675;-92
2024/01/09 02:19:34;;;;;;;14.68;7.88;;;-3.60;95.80;;;;;;4920280;29;20327;-92
2024/01/09 02:22:01;;;;;;;15.85;8.85;;;-3.60;95.90;;;;;;4919538;29;20229;-90
2024/01/09 02:24:30;;;;;;;17.35;8.25;;;-3.60;95.80;;;;;;4919247;29;20315;-82
2024/01/09 02:27:07;;;;;;;13.48;8.23;;;-3.60;95.80;;;;;;4917566;29;20706;-82
2024/01/09 02:29:35;;;;;;;13.90;8.10;;;-3.60;95.90;;;;;;4918033;29;20292;-82
2024/01/09 02:32:12;;;;;;;12.60;7.70;;;-3.60;96.00;;;;;;4908862;29;20240;-82
2024/01/09 02:34:41;;;;;;;13.23;7.40;;;-3.60;95.90;;;;;;4917982;29;20244;-82
2024/01/09 02:37:10;;;;;;;9.93;7.53;;;-3.60;95.90;;;;;;4908353;29;20332;-82
2024/01/09 02:39:37;;;;;;;11.80;7.88;;;-3.70;95.60;;;;;;4903275;29;20285;-83
2024/01/09 02:42:07;;;;;;;10.40;9.05;;;-3.70;95.70;;;;;;4917592;29;20576;-82
2024/01/09 02:44:34;;;;;;;14.40;7.35;;;-3.70;95.70;;;;;;4917447;29;20563;-83
2024/01/09 02:47:01;;;;;;;16.42;9.50;;;-3.70;95.90;;;;;;4917981;29;20225;-82
2024/01/09 02:49:30;;;;;;;14.05;7.97;;;-3.70;95.70;;;;;;4899659;29;20236;-81
2024/01/09 02:51:57;;;;;;;13.95;8.25;;;-3.80;95.60;;;;;;4917738;29;20231;-82
2024/01/09 02:54:27;;;;;;;13.35;8.50;;;-3.80;95.70;;;;;;4917703;29;20226;-82
2024/01/09 02:56:55;;;;;;;10.45;6.68;;;-3.80;95.70;;;;;;4917828;29;20701;-82
2024/01/09 02:59:26;;;;;;;12.38;8.60;;;-3.80;96.00;;;;;;4917718;29;20315;-82
2024/01/09 03:01:53;;;;;;;11.20;8.18;;;-3.80;95.90;;;;;;4917340;29;20305;-81
2024/01/09 03:04:23;;;;;;;11.55;7.88;;;-3.80;96.00;;;;;;4917900;29;20308;-81
2024/01/09 03:06:52;;;;;;;9.50;7.30;;;-3.80;96.00;;;;;;4920835;29;20233;-91
2024/01/09 03:09:19;;;;;;;12.60;9.02;;;-3.70;96.00;;;;;;4926959;29;20229;-90
2024/01/09 03:11:46;;;;;;;9.52;8.50;;;-3.80;95.70;;;;;;4935616;29;20297;-90
2024/01/09 03:14:13;;;;;;;12.60;8.50;;;-3.80;95.70;;;;;;4935664;29;20225;-91
2024/01/09 03:16:42;;;;;;;11.63;7.72;;;-3.80;96.00;;;;;;4938160;29;20255;-89
2024/01/09 03:19:09;;;;;;;13.00;8.68;;;-3.70;95.80;;;;;;4938875;28;20206;-90
2024/01/09 03:21:36;;;;;;;13.15;9.50;;;-3.70;95.90;;;;;;4929430;29;20213;-87
2024/01/09 03:24:07;;;;;;;14.65;8.60;;;-3.80;95.90;;;;;;4938176;28;20214;-90
2024/01/09 03:26:47;;;;;;;13.40;8.00;;;-3.70;96.10;;;;;;4940051;29;20240;-91
2024/01/09 03:29:17;;;;;;;9.43;7.53;;;-3.70;95.90;;;;;;4940560;29;20216;-92
2024/01/09 03:31:44;;;;;;;11.75;9.00;;;-3.70;95.80;;;;;;4939071;28;20209;-90
2024/01/09 03:34:11;;;;;;;12.95;8.55;;;-3.70;95.80;;;;;;4940011;28;20233;-90
2024/01/09 03:36:39;;;;;;;15.02;9.27;;;-3.70;95.70;;;;;;4930769;28;20269;-90
2024/01/09 03:39:10;;;;;;;14.45;8.85;;;-3.80;95.50;;;;;;4937774;29;20257;-92
2024/01/09 03:41:46;;;;;;;15.35;9.10;;;-3.80;95.60;;;;;;4930203;29;20213;-88
2024/01/09 03:44:13;;;;;;;10.52;9.43;;;-3.90;95.40;;;;;;4935403;28;20216;-90
2024/01/09 03:46:42;;;;;;;12.57;8.00;;;-3.90;95.50;;;;;;4939168;28;20222;-90
2024/01/09 03:49:12;;;;;;;12.88;8.68;;;-3.90;95.60;;;;;;4940604;28;20229;-91
2024/01/09 03:51:40;;;;;;;11.65;7.85;;;-3.90;95.60;;;;;;4929070;29;20229;-91
2024/01/09 03:54:08;;;;;;;14.50;8.00;;;-3.90;95.60;;;;;;4932001;28;20233;-91
2024/01/09 03:56:47;;;;;;;10.00;8.20;;;-3.90;95.70;;;;;;4939737;28;20205;-86
2024/01/09 03:59:14;;;;;;;18.00;10.02;;;-3.90;95.70;;;;;;4940241;28;20209;-90
2024/01/09 04:01:41;;;;;;;13.88;8.73;;;-3.90;95.80;;;;;;4939532;28;20221;-90
2024/01/09 04:04:08;;;;;;;13.70;9.13;;;-3.90;95.70;;;;;;4937123;29;20201;-91
2024/01/09 04:06:35;;;;;;;13.00;8.75;;;-4.00;95.70;;;;;;4929986;29;20229;-89
2024/01/09 04:09:02;;;;;;;14.40;8.60;;;-3.90;95.70;;;;;;4938099;29;20224;-91
2024/01/09 04:11:30;;;;;;;14.82;8.93;;;-4.00;95.50;;;;;;4925930;29;20588;-85
2024/01/09 04:13:58;;;;;;;10.45;8.18;;;-4.00;95.50;;;;;;4939037;29;20217;-91
2024/01/09 04:19:42;;;;;;;14.82;9.57;;;-4.00;95.40;;;;;;4911393;29;20281;-91
2024/01/09 04:22:09;;;;;;;18.60;9.43;;;-4.10;95.40;;;;;;4919988;29;20317;-91
2024/01/09 04:24:36;;;;;;;13.63;9.20;;;-4.10;95.60;;;;;;4922348;29;20308;-91
2024/01/09 04:27:13;;;;;;;8.98;7.60;;;-4.10;95.60;;;;;;4912956;29;20233;-91
2024/01/09 04:29:41;;;;;;;13.32;8.10;;;-4.10;95.50;;;;;;4919046;29;20229;-90
2024/01/09 04:32:08;;;;;;;12.68;9.43;;;-4.10;95.60;;;;;;4929575;29;20233;-91
2024/01/09 04:34:58;;;;;;;;;;;;;;;;;;;;;
2024/01/09 04:37:26;;;;;;;17.92;9.57;;;-4.10;95.60;;;;;;4934029;29;20233;-91
2024/01/09 04:39:53;;;;;;;13.80;9.02;;;-4.10;95.70;;;;;;4938086;29;20252;-91
2024/01/09 04:42:23;;;;;;;12.05;9.45;;;-4.10;95.80;;;;;;4926760;29;20239;-89
2024/01/09 04:44:50;;;;;;;14.63;10.38;;;-4.10;95.80;;;;;;4926384;29;20221;-90
2024/01/09 04:47:20;;;;;;;14.27;10.32;;;-4.00;96.00;;;;;;4941641;29;20227;-91
2024/01/09 04:49:47;;;;;;;13.52;8.70;;;-4.00;96.00;;;;;;4939121;29;20297;-91
2024/01/09 04:52:14;;;;;;;13.07;8.80;;;-4.00;96.00;;;;;;4931866;29;20241;-91
2024/01/09 04:54:42;;;;;;;14.55;10.48;;;-4.00;95.80;;;;;;4939115;29;20214;-91
2024/01/09 04:57:10;;;;;;;22.55;11.15;;;-4.00;95.80;;;;;;4935631;29;20229;-91
2024/01/09 04:59:40;;;;;;;15.05;8.50;;;-4.00;96.00;;;;;;4924819;29;20253;-91
2024/01/09 05:02:07;;;;;;;14.60;9.65;;;-4.00;96.20;;;;;;4938082;29;20237;-81
2024/01/09 05:04:34;;;;;;;19.67;10.73;;;-4.10;96.10;;;;;;4919851;29;20237;-81
2024/01/09 05:10:42;;;;;;;12.93;8.43;;;-4.10;95.70;;;;;;4892330;29;20233;-81
2024/01/09 05:13:09;;;;;;;12.35;8.82;;;-4.20;95.70;;;;;;4918995;29;20320;-82
2024/01/09 05:15:38;;;;;;;13.60;9.43;;;-4.20;95.90;;;;;;4920321;29;20237;-81
2024/01/09 05:18:05;;;;;;;13.35;8.52;;;-4.30;96.00;;;;;;4916859;29;20229;-81
2024/01/09 05:20:32;;;;;;;14.82;9.05;;;-4.30;96.20;;;;;;4920446;29;20308;-79
2024/01/09 05:22:59;;;;;;;14.65;9.60;;;-4.30;96.20;;;;;;4920944;29;20226;-80
2024/01/09 05:25:26;;;;;;;16.58;9.52;;;-4.30;96.30;;;;;;4912716;29;21426;-80
2024/01/09 05:27:53;;;;;;;12.52;8.20;;;-4.30;96.20;;;;;;4934043;29;20257;-80
2024/01/09 05:30:20;;;;;;;16.75;9.27;;;-4.30;96.20;;;;;;4934968;29;20236;-79
2024/01/09 05:32:49;;;;;;;18.08;8.63;;;-4.30;96.00;;;;;;5302481;23;20200;-80
2024/01/09 05:35:16;;;;;;;13.32;8.73;;;-4.30;96.10;;;;;;4944004;29;20279;-80
2024/01/09 05:37:43;;;;;;;13.43;8.70;;;-4.30;96.20;;;;;;4939629;29;20237;-80
2024/01/09 05:40:11;;;;;;;12.90;9.23;;;-4.30;96.20;;;;;;4929098;29;20260;-81
2024/01/09 05:42:39;;;;;;;13.10;8.15;;;-4.30;96.10;;;;;;4930312;29;20288;-81
2024/01/09 05:45:07;;;;;;;14.88;9.10;;;-4.30;96.00;;;;;;4919326;29;20240;-81
2024/01/09 05:47:37;;;;;;;14.90;9.43;;;-4.30;96.10;;;;;;4920130;29;20284;-81
2024/01/09 05:50:10;;;;;;;15.63;9.77;;;-4.30;96.20;;;;;;4910494;29;20237;-81
2024/01/09 05:52:38;;;;;;;15.68;8.20;;;-4.30;96.20;;;;;;4919195;29;20229;-80
2024/01/09 05:55:06;;;;;;;12.23;9.38;;;-4.30;96.20;;;;;;4909560;29;20318;-82
2024/01/09 05:57:33;;;;;;;21.58;11.13;;;-4.30;96.30;;;;;;4918641;29;20221;-81
2024/01/09 06:00:00;;;;;;;14.93;10.57;;;-4.30;96.30;;;;;;4919871;29;20683;-82
2024/01/09 06:02:57;;;;;;;19.02;11.75;;;-4.30;96.20;;;;;;4921373;29;20332;-90
2024/01/09 06:05:29;;;;;;;20.27;11.18;;;-4.30;96.10;;;;;;4919453;29;20221;-91
2024/01/09 06:07:56;;;;;;;15.65;9.88;;;-4.30;96.30;;;;;;4926915;29;20233;-91
2024/01/09 06:10:25;;;;;;;14.88;10.10;;;-4.30;96.40;;;;;;4928165;29;20296;-91
2024/01/09 06:12:52;;;;;;;16.00;11.25;;;-4.30;96.60;;;;;;4938811;29;20213;-91
2024/01/09 06:15:19;;;;;;;22.98;11.52;;;-4.30;96.70;;;;;;4939292;29;20229;-91
2024/01/09 06:17:47;;;;;;;20.73;12.80;;;-4.30;96.70;;;;;;4938578;29;20293;-91
2024/01/09 06:20:15;;;;;;;14.38;9.77;;;-4.30;96.80;;;;;;4938668;29;20249;-91
2024/01/09 06:26:01;;;;;;;13.38;9.40;;;-4.30;96.60;;;;;;4863676;29;20240;-90
2024/01/09 06:28:28;;;;;;;15.23;9.02;;;-4.30;96.50;;;;;;4933176;29;20233;-91
2024/01/09 06:31:08;;;;;;;17.40;11.20;;;-4.30;96.80;;;;;;4908981;29;20262;-91
2024/01/09 06:33:45;;;;;;;16.95;11.25;;;-4.40;96.60;;;;;;4925263;29;20328;-91
2024/01/09 06:36:12;;;;;;;24.73;13.10;;;-4.30;96.90;;;;;;4910969;29;20301;-91
2024/01/09 06:38:41;;;;;;;15.30;10.52;;;-4.30;96.90;;;;;;4912178;29;20271;-90
2024/01/09 06:41:29;;;;;;;18.75;10.73;;;-4.30;96.90;;;;;;4904332;29;20254;-91
2024/01/09 06:44:01;;;;;;;14.23;10.25;;;-4.30;96.60;;;;;;4900258;29;20253;-91
2024/01/09 06:46:29;;;;;;;15.15;8.85;;;-4.30;96.80;;;;;;4919888;29;20213;-90
2024/01/09 06:49:17;;;;;;;20.05;11.98;;;-4.30;96.70;;;;;;4918789;29;20300;-90
2024/01/09 06:51:45;;;;;;;15.32;10.07;;;-4.40;96.60;;;;;;4922930;29;20266;-90
2024/01/09 06:54:12;;;;;;;20.33;10.63;;;-4.40;96.70;;;;;;4915989;29;20232;-91
2024/01/09 06:56:45;;;;;;;13.32;10.82;;;-4.40;96.80;;;;;;4915436;29;20230;-91
2024/01/09 06:59:15;;;;;;;17.50;10.82;;;-4.40;96.80;;;;;;4918432;29;20226;-91
2024/01/09 07:01:46;;;;;;;19.92;10.80;;;-4.40;97.00;;;;;;4923767;29;20637;-92
2024/01/09 07:04:15;;;;;;;15.57;10.10;;;-4.40;97.10;;;;;;4926346;29;20225;-90
2024/01/09 07:06:44;;;;;;;14.27;8.43;;;-4.40;97.20;;;;;;4910850;29;20403;-91
2024/01/09 07:09:13;;;;;;;16.80;9.45;;;-4.40;96.90;;;;;;4909689;29;20289;-91
2024/01/09 07:11:42;;;;;;;18.70;11.00;;;-4.40;96.90;;;;;;4909251;29;20241;-92
2024/01/09 07:14:12;;;;;;;16.17;11.40;;;-4.40;97.10;;;;;;4896122;29;20230;-81
2024/01/09 07:16:42;;;;;;;16.05;10.20;;;-4.30;97.20;;;;;;4906383;29;20312;-82
2024/01/09 07:19:21;;;;;;;17.65;10.77;;;-4.30;97.00;;;;;;4909881;29;20229;-81
2024/01/09 07:21:58;;;;;;;13.82;10.00;;;-4.30;96.90;;;;;;4901506;29;20232;-82
2024/01/09 07:24:30;;;;;;;13.23;10.10;;;-4.40;96.60;;;;;;4900135;29;20242;-90
2024/01/09 07:27:02;;;;;;;23.02;10.68;;;-4.40;96.80;;;;;;4911054;29;20282;-89
2024/01/09 07:29:30;;;;;;;20.30;10.60;;;-4.40;97.00;;;;;;4911376;29;20225;-82
2024/01/09 07:32:00;;;;;;;18.92;10.95;;;-4.30;97.10;;;;;;4889673;29;20226;-82
2024/01/09 07:34:28;;;;;;;14.80;10.98;;;-4.30;97.20;;;;;;4920771;29;20285;-82
2024/01/09 07:36:55;;;;;;;22.25;11.02;;;-4.30;97.10;;;;;;4914763;29;20242;-82
2024/01/09 07:39:26;;;;;;;17.60;10.75;;;-4.30;97.10;;;;;;4917209;29;20229;-92
2024/01/09 07:41:53;;;;;;;14.52;9.60;;;-4.40;96.90;;;;;;4919871;29;20229;-82
2024/01/09 07:44:21;;;;;;;16.85;10.35;;;-4.40;96.90;;;;;;4908215;29;20308;-81
2024/01/09 07:46:59;;;;;;;;;;;;;;;;;;;;;
2024/01/09 07:49:27;;;;;;;17.27;10.30;;;-4.40;97.00;;;;;;4921182;29;20304;-91
2024/01/09 07:51:57;;;;;;;13.65;9.60;;;-4.40;97.10;;;;;;4921406;29;20224;-92
2024/01/09 07:54:25;;;;;;;15.85;9.93;;;-4.40;97.20;;;;;;4924956;29;20276;-92
2024/01/09 07:56:52;;;;;;;20.30;10.68;;;-4.40;97.10;;;;;;4911878;29;20234;-91
2024/01/09 07:59:19;;;;;;;17.42;11.13;;;-4.40;96.90;;;;;;4922373;29;20234;-91
2024/01/09 08:02:01;;;;;;;18.05;10.82;;;-4.40;96.90;;;;;;4900577;29;20232;-92
2024/01/09 08:04:37;;;;;;;16.08;12.30;;;-4.40;97.40;;;;;;4917883;29;20225;-92
2024/01/09 08:07:25;;;;;;;16.98;10.45;;;-4.40;97.00;;;;;;4895593;29;20610;-90
2024/01/09 08:13:29;;;;;;;20.30;12.18;;;-4.50;97.40;;;;;;4861933;29;20299;-92
2024/01/09 08:15:58;;;;;;;17.13;10.85;;;-4.50;97.60;;;;;;4936184;28;20295;-92
2024/01/09 08:18:31;;;;;;;17.65;10.45;;;-4.40;97.50;;;;;;4925305;29;20233;-92
2024/01/09 08:21:01;;;;;;;20.48;10.95;;;-4.40;97.50;;;;;;4924060;29;20241;-92
2024/01/09 08:23:33;;;;;;;19.00;11.73;;;-4.40;97.50;;;;;;4903930;29;20234;-92
2024/01/09 08:26:04;;;;;;;14.10;10.65;;;-4.40;97.40;;;;;;4903697;29;20221;-92
2024/01/09 08:28:36;;;;;;;17.77;11.23;;;-4.40;97.40;;;;;;4883914;29;20230;-91
2024/01/09 08:31:12;;;;;;;19.67;12.82;;;-4.40;97.40;;;;;;4899328;29;20225;-91
2024/01/09 08:33:45;;;;;;;18.27;15.07;;;-4.40;97.50;;;;;;4922336;29;20229;-92
2024/01/09 08:36:12;;;;;;;17.77;12.50;;;-4.40;97.40;;;;;;4921121;29;20221;-82
2024/01/09 08:38:42;;;;;;;21.30;13.10;;;-4.40;97.30;;;;;;4924964;29;20643;-81
2024/01/09 08:41:36;;;;;;;19.85;12.27;;;-4.40;97.20;;;;;;4903949;29;20742;-92
2024/01/09 08:44:04;;;;;;;20.30;13.02;;;-4.40;97.20;;;;;;4920201;29;20290;-92
2024/01/09 08:46:44;;;;;;;20.77;12.82;;;-4.50;97.00;;;;;;4916495;29;20257;-93
2024/01/09 08:49:22;;;;;;;26.75;12.20;;;-4.40;97.30;;;;;;4897335;29;20225;-82
2024/01/09 08:51:53;;;;;;;19.63;13.23;;;-4.40;97.40;;;;;;4909260;29;20237;-82
2024/01/09 08:54:52;;;;;;;22.00;13.93;;;-4.40;97.30;;;;;;4911106;29;20221;-82
2024/01/09 08:57:41;;;;;;;21.35;12.25;;;-4.40;97.30;;;;;;4919516;29;20238;-82
2024/01/09 09:00:13;;;;;;;18.00;11.43;;;-4.30;97.40;;;;;;4919580;29;20652;-83
2024/01/09 09:02:48;;;;;;;22.33;12.13;;;-4.30;97.70;;;;;;4921316;29;20249;-93
2024/01/09 09:05:18;;;;;;;21.50;13.43;;;-4.20;97.70;;;;;;4910333;29;20714;-83
2024/01/09 09:08:01;;;;;;;;;;;;;;;;;;;;;
2024/01/09 09:10:35;;;;;;;20.67;12.18;;;-4.10;97.40;;;;;;4948942;29;20224;-91
2024/01/09 09:13:12;;;;;;;22.52;12.80;;;-4.10;97.00;;;;;;4940719;29;20312;-93
2024/01/09 09:15:42;;;;;;;20.77;12.45;;;-4.00;97.20;;;;;;4932395;29;20682;-94
2024/01/09 09:18:10;;;;;;;20.45;13.15;;;-4.00;97.20;;;;;;4911867;29;20237;-93
2024/01/09 09:21:12;;;;;;;27.10;14.68;;;-4.00;97.00;;;;;;4913436;29;20229;-93
2024/01/09 09:23:42;;;;;;;20.40;13.60;;;-4.00;96.70;;;;;;4926529;29;20232;-93
2024/01/09 09:26:32;;;;;;;22.48;14.60;;;-4.00;96.60;;;;;;4923482;29;20229;-93
2024/01/09 09:29:02;;;;;;;21.45;12.68;;;-4.00;96.80;;;;;;4934646;28;20566;-93
2024/01/09 09:31:29;;;;;;;22.80;12.57;;;-3.90;96.50;;;;;;4930337;29;20295;-92
2024/01/09 09:34:02;;;;;;;22.50;12.63;;;-3.80;96.70;;;;;;4941378;29;20239;-82
2024/01/09 09:36:36;;;;;;;26.17;15.18;;;-3.80;96.50;;;;;;4938107;29;20287;-82
2024/01/09 09:39:03;;;;;;;24.58;13.45;;;-3.80;96.30;;;;;;4940249;29;20227;-92
2024/01/09 09:41:55;;;;;;;23.40;15.68;;;-3.80;96.50;;;;;;4940731;28;20224;-82
2024/01/09 09:44:23;;;;;;;16.17;12.77;;;-3.70;96.70;;;;;;4938509;29;20225;-82
2024/01/09 09:46:55;;;;;;;21.52;13.23;;;-3.70;96.50;;;;;;4930222;29;20232;-82
2024/01/09 09:49:36;;;;;;;35.08;15.63;;;-3.60;96.60;;;;;;4916783;29;20314;-92
2024/01/09 09:52:10;;;;;;;16.27;12.13;;;-3.60;96.60;;;;;;4918574;29;20233;-92
2024/01/09 09:54:39;;;;;;;22.13;14.25;;;-3.50;96.80;;;;;;4910036;29;20315;-82
2024/01/09 09:57:08;;;;;;;17.95;13.60;;;-3.40;96.90;;;;;;4908653;29;20233;-82
2024/01/09 09:59:37;;;;;;;21.05;13.27;;;-3.30;96.70;;;;;;4919543;29;20226;-82
2024/01/09 10:02:06;;;;;;;26.98;14.75;;;-3.30;96.30;;;;;;4909313;29;20234;-82
2024/01/09 10:04:46;;;;;;;24.52;14.77;;;-3.30;96.20;;;;;;4920398;29;20236;-92
2024/01/09 10:07:22;;;;;;;22.17;13.52;;;-3.30;96.00;;;;;;4932607;29;20237;-83
2024/01/09 10:09:55;;;;;;;21.92;14.52;;;-3.30;95.80;;;;;;4917864;29;20596;-82
2024/01/09 10:12:31;;;;;;;22.70;14.25;;;-3.30;95.70;;;;;;4919643;29;20692;-82
2024/01/09 10:15:07;;;;;;;18.70;13.02;;;-3.20;95.90;;;;;;4939659;29;20239;-82
2024/01/09 10:17:34;;;;;;;21.35;14.00;;;-3.10;95.60;;;;;;4908244;29;20232;-93
2024/01/09 10:20:02;;;;;;;22.52;14.40;;;-3.00;95.50;;;;;;4902878;29;20567;-83
2024/01/09 10:22:35;;;;;;;27.27;15.90;;;-3.00;95.20;;;;;;4912194;29;20558;-82
2024/01/09 10:25:10;;;;;;;21.98;12.98;;;-3.00;95.00;;;;;;4918125;29;20277;-83
2024/01/09 10:30:25;;;;;;;19.60;12.40;;;-2.80;95.30;;;;;;4927360;28;20236;-82
2024/01/09 10:33:01;;;;;;;30.05;15.40;;;-2.80;95.30;;;;;;4936718;29;20390;-82
2024/01/09 10:35:41;;;;;;;19.67;14.80;;;-2.70;95.20;;;;;;4898923;29;20564;-82
2024/01/09 10:38:32;;;;;;;20.55;14.70;;;-2.70;95.30;;;;;;4882670;29;20241;-89
2024/01/09 10:40:59;;;;;;;25.65;15.30;;;-2.60;95.50;;;;;;4905769;29;20257;-93
2024/01/09 10:43:28;;;;;;;21.23;14.90;;;-2.50;95.50;;;;;;4899405;29;20251;-94
2024/01/09 10:46:02;;;;;;;20.67;13.23;;;-2.50;95.50;;;;;;4904658;29;20282;-92
2024/01/09 10:48:35;;;;;;;18.40;12.75;;;-2.40;95.40;;;;;;4917301;29;20213;-93
2024/01/09 10:51:05;;;;;;;21.17;14.82;;;-2.50;95.10;;;;;;4884148;29;20290;-83
2024/01/09 10:53:36;;;;;;;22.95;14.18;;;-2.40;95.10;;;;;;4870933;29;20257;-84
2024/01/09 10:56:15;;;;;;;16.25;12.88;;;-2.40;95.20;;;;;;4881613;29;20321;-85
2024/01/09 10:58:48;;;;;;;20.85;14.02;;;-2.30;95.40;;;;;;4884071;29;20291;-83
2024/01/09 11:01:20;;;;;;;21.90;13.57;;;-2.30;95.60;;;;;;4879679;29;20231;-93
2024/01/09 11:03:48;;;;;;;21.50;13.57;;;-2.20;95.50;;;;;;4882585;29;20312;-94
2024/01/09 11:06:17;;;;;;;22.60;15.07;;;-2.20;95.60;;;;;;4883258;29;20225;-82
2024/01/09 11:08:59;;;;;;;19.90;13.55;;;-2.10;95.50;;;;;;4869964;29;20554;-83
2024/01/09 11:11:28;;;;;;;18.58;13.02;;;-2.20;95.10;;;;;;4879553;29;20234;-83
2024/01/09 11:14:00;;;;;;;20.95;13.70;;;-2.20;94.90;;;;;;4879556;29;20223;-83
2024/01/09 11:16:31;;;;;;;21.63;13.85;;;-2.10;95.00;;;;;;4878918;29;20241;-83
2024/01/09 11:19:11;;;;;;;23.38;14.00;;;-2.10;95.00;;;;;;4845476;29;20262;-83
2024/01/09 11:21:38;;;;;;;19.83;13.50;;;-2.00;95.20;;;;;;4877513;29;20321;-83
2024/01/09 11:24:17;;;;;;;22.35;13.85;;;-1.90;95.30;;;;;;4878105;29;20237;-83
2024/01/09 11:26:45;;;;;;;23.25;14.95;;;-1.90;95.30;;;;;;4865460;29;20309;-83
2024/01/09 11:29:17;;;;;;;23.85;14.32;;;-1.90;95.40;;;;;;4864877;29;20237;-82
2024/01/09 11:31:51;;;;;;;23.40;14.48;;;-1.80;95.50;;;;;;4853960;29;20676;-83
2024/01/09 11:34:28;;;;;;;21.20;13.63;;;-1.80;95.40;;;;;;4876428;29;20652;-92
2024/01/09 11:36:57;;;;;;;22.40;15.10;;;-1.70;95.50;;;;;;4926577;29;20239;-88
2024/01/09 11:39:31;;;;;;;20.70;12.88;;;-1.60;95.40;;;;;;4931191;29;21157;-90
2024/01/09 11:42:00;;;;;;;22.75;14.05;;;-1.60;95.30;;;;;;4922376;29;20718;-88
2024/01/09 11:44:27;;;;;;;20.92;13.43;;;-1.50;95.30;;;;;;4927844;29;20305;-87
2024/01/09 11:46:57;;;;;;;22.58;13.93;;;-1.40;95.30;;;;;;4929376;29;20298;-93
2024/01/09 11:49:24;;;;;;;17.85;13.38;;;-1.40;95.20;;;;;;4927376;29;20248;-85
2024/01/09 11:52:13;;;;;;;21.17;13.77;;;-1.30;95.20;;;;;;4927665;29;20222;-83
2024/01/09 11:54:43;;;;;;;22.92;12.80;;;-1.30;95.10;;;;;;4924653;29;20232;-84
2024/01/09 11:57:16;;;;;;;25.55;15.73;;;-1.20;95.10;;;;;;4925477;29;20583;-91
2024/01/09 11:59:58;;;;;;;22.08;13.07;;;-1.20;95.10;;;;;;4930335;29;20284;-87
2024/01/09 12:02:27;;;;;;;20.63;13.32;;;-1.20;94.90;;;;;;4928326;29;20263;-89
2024/01/09 12:04:57;;;;;;;23.73;12.07;;;-1.10;94.80;;;;;;4905082;29;20245;-90
2024/01/09 12:08:02;;;;;;;19.70;13.10;;;-1.10;94.60;;;;;;4912378;29;20374;-87
2024/01/09 12:10:33;;;;;;;16.10;10.40;;;-1.00;94.40;;;;;;4877670;29;20300;-80
2024/01/09 12:13:04;;;;;;;21.45;13.13;;;-0.90;94.30;;;;;;4921490;29;20226;-80
2024/01/09 12:15:34;;;;;;;16.38;11.60;;;-0.90;93.90;;;;;;4909086;29;20309;-82
2024/01/09 12:21:13;;;;;;;18.42;11.68;;;-0.70;93.80;;;;;;4901607;29;20225;-79
2024/01/09 12:23:43;;;;;;;15.30;10.43;;;-0.60;93.60;;;;;;4926962;29;20301;-79
2024/01/09 12:26:12;;;;;;;25.60;13.15;;;-0.50;93.40;;;;;;4918518;29;20230;-80
2024/01/09 12:28:40;;;;;;;16.65;12.48;;;-0.40;93.50;;;;;;4920522;29;20248;-79
2024/01/09 12:31:08;;;;;;;20.77;12.25;;;-0.30;93.50;;;;;;4921383;29;20245;-79
2024/01/09 12:33:37;;;;;;;16.77;12.90;;;-0.20;93.50;;;;;;4924014;29;20341;-79
2024/01/09 12:36:04;;;;;;;16.40;11.10;;;-0.10;92.90;;;;;;4914516;29;20229;-83
2024/01/09 12:38:32;;;;;;;21.40;13.18;;;0.00;92.90;;;;;;4904542;29;20276;-79
2024/01/09 12:41:00;;;;;;;19.13;11.95;;;0.00;92.50;;;;;;4905842;29;20233;-79
2024/01/09 12:43:31;;;;;;;18.00;12.48;;;0.00;92.30;;;;;;4915794;29;20877;-83
2024/01/09 12:46:04;;;;;;;17.58;10.98;;;0.10;92.40;;;;;;4902170;29;20218;-83
2024/01/09 12:48:31;;;;;;;19.00;11.95;;;0.20;91.80;;;;;;4906911;29;20542;-78
2024/01/09 12:51:03;;;;;;;19.17;14.23;;;0.20;91.80;;;;;;4922940;29;20226;-79
2024/01/09 12:53:31;;;;;;;17.75;12.70;;;0.20;92.00;;;;;;4916476;29;20225;-83
2024/01/09 12:56:06;;;;;;;16.27;11.73;;;0.10;92.10;;;;;;4919210;29;20257;-83
2024/01/09 12:58:39;;;;;;;26.38;13.10;;;0.20;92.30;;;;;;4919494;29;20229;-78
2024/01/09 13:01:06;;;;;;;17.27;12.07;;;0.20;92.10;;;;;;4919225;29;20226;-78
2024/01/09 13:03:33;;;;;;;16.50;12.18;;;0.20;92.00;;;;;;4919316;29;20547;-79
2024/01/09 13:06:04;;;;;;;23.15;14.52;;;0.20;92.50;;;;;;4919104;29;20598;-83
2024/01/09 13:08:33;;;;;;;19.27;12.30;;;0.20;92.10;;;;;;4919291;29;20386;-83
2024/01/09 13:11:01;;;;;;;22.50;11.82;;;0.20;92.00;;;;;;4918582;29;20288;-78
2024/01/09 13:13:28;;;;;;;17.23;12.25;;;0.30;92.10;;;;;;4919596;29;20329;-78
2024/01/09 13:15:56;;;;;;;20.05;12.73;;;0.30;92.20;;;;;;4919680;29;20306;-82